createdAt,value
2023-04-08T00:00:29.087Z,101087.63
2023-04-08T00:03:00.871Z,101134.25
2023-04-08T00:05:27.887Z,101136.06
2023-04-08T00:08:03.044Z,101108.69
2023-04-08T00:10:29.736Z,101133.97
2023-04-08T00:13:01.562Z,101010.22
2023-04-08T00:15:29.796Z,101129.44
2023-04-08T00:18:04.322Z,101142.06
2023-04-08T00:20:31.150Z,101128.59
2023-04-08T00:22:58.315Z,101155.34
2023-04-08T00:25:31.234Z,101148.34
2023-04-08T00:27:58.252Z,101135.44
2023-04-08T00:30:34.638Z,101127.09
2023-04-08T00:33:11.336Z,101144.09
2023-04-08T00:35:38.824Z,101145.66
2023-04-08T00:38:08.199Z,101145.66
2023-04-08T00:40:42.200Z,101033.97
2023-04-08T00:43:17.180Z,101126.84
2023-04-08T00:45:46.573Z,101023.94
2023-04-08T00:48:16.564Z,101151.69
2023-04-08T00:50:46.391Z,101112.75
2023-04-08T00:53:25.296Z,101146.50
2023-04-08T00:55:56.833Z,101108.25
2023-04-08T00:58:29.602Z,101074.22
2023-04-08T01:01:09.666Z,101090.47
2023-04-08T01:04:22.451Z,101146.63
2023-04-08T01:07:03.835Z,101147.13
2023-04-08T01:09:38.514Z,101109.78
2023-04-08T01:12:08.392Z,101163.69
2023-04-08T01:14:42.514Z,101147.13
2023-04-08T01:17:13.077Z,101160.13
2023-04-08T01:19:45.019Z,101169.78
2023-04-08T01:22:25.245Z,101153.00
2023-04-08T01:25:08.901Z,101143.47
2023-04-08T01:27:44.261Z,101110.53
2023-04-08T01:30:22.321Z,101109.44
2023-04-08T01:32:59.938Z,101146.31
2023-04-08T01:35:27.810Z,101127.81
2023-04-08T01:38:03.559Z,101064.28
2023-04-08T01:40:30.575Z,101151.88
2023-04-08T01:43:02.184Z,101157.97
2023-04-08T01:45:30.806Z,101118.06
2023-04-08T01:48:03.299Z,101153.94
2023-04-08T01:50:31.877Z,101130.09
2023-04-08T01:53:00.708Z,101164.56
2023-04-08T01:55:29.536Z,101164.47
2023-04-08T01:58:00.673Z,101130.72
2023-04-08T02:00:32.261Z,101152.50
2023-04-08T02:03:06.776Z,101118.53
2023-04-08T02:05:34.374Z,101136.25
2023-04-08T02:08:07.064Z,101152.78
2023-04-08T02:10:34.651Z,101084.34
2023-04-08T02:13:01.984Z,101088.94
2023-04-08T02:15:37.289Z,101121.44
2023-04-08T02:21:13.808Z,101073.72
2023-04-08T02:24:03.650Z,101128.66
2023-04-08T02:26:37.349Z,101136.75
2023-04-08T02:29:06.034Z,101136.56
2023-04-08T02:31:43.690Z,101031.09
2023-04-08T02:34:21.845Z,101135.41
2023-04-08T02:36:49.824Z,101146.66
2023-04-08T02:39:22.157Z,101115.31
2023-04-08T02:41:51.384Z,101099.53
2023-04-08T02:44:34.999Z,101082.06
2023-04-08T02:47:04.703Z,101126.75
2023-04-08T02:49:31.664Z,101100.13
2023-04-08T02:52:04.639Z,101091.72
2023-04-08T02:54:32.123Z,101098.34
2023-04-08T02:57:02.334Z,100895.41
2023-04-08T02:59:29.867Z,101133.00
2023-04-08T03:02:10.017Z,101067.34
2023-04-08T03:04:37.189Z,101150.06
2023-04-08T03:07:10.277Z,101090.66
2023-04-08T03:09:37.747Z,101135.84
2023-04-08T03:12:08.159Z,101158.88
2023-04-08T03:14:38.931Z,101127.91
2023-04-08T03:17:12.710Z,101156.34
2023-04-08T03:22:25.670Z,101182.66
2023-04-08T03:24:52.702Z,101111.91
2023-04-08T03:27:19.365Z,101179.53
2023-04-08T03:29:53.225Z,101162.91
2023-04-08T03:32:25.953Z,101163.13
2023-04-08T03:34:54.287Z,101188.81
2023-04-08T03:37:21.058Z,101189.41
2023-04-08T03:39:54.258Z,101191.34
2023-04-08T03:42:24.963Z,101155.75
2023-04-08T03:44:51.733Z,101171.44
2023-04-08T03:47:21.577Z,101181.31
2023-04-08T03:49:49.451Z,101142.16
2023-04-08T03:52:30.140Z,101128.88
2023-04-08T03:54:58.147Z,101174.97
2023-04-08T03:57:24.804Z,101154.34
2023-04-08T03:59:51.740Z,101103.06
2023-04-08T04:02:23.974Z,101190.41
2023-04-08T04:04:51.082Z,101143.41
2023-04-08T04:07:18.234Z,101207.03
2023-04-08T04:09:44.908Z,101198.34
2023-04-08T04:12:11.853Z,101210.66
2023-04-08T04:14:38.640Z,101116.84
2023-04-08T04:17:08.078Z,101158.91
2023-04-08T04:19:34.975Z,101141.91
2023-04-08T04:22:08.234Z,101154.22
2023-04-08T04:24:34.912Z,101177.59
2023-04-08T04:27:02.220Z,101130.59
2023-04-08T04:29:33.299Z,101200.97
2023-04-08T04:32:02.856Z,101194.09
2023-04-08T04:34:32.076Z,101154.44
2023-04-08T04:37:04.764Z,101199.22
2023-04-08T04:39:31.962Z,101206.22
2023-04-08T04:42:02.548Z,101186.56
2023-04-08T04:44:29.331Z,101160.75
2023-04-08T04:47:00.735Z,101191.50
2023-04-08T04:49:30.600Z,101179.31
2023-04-08T04:51:57.427Z,101156.31
2023-04-08T04:54:27.296Z,101207.91
2023-04-08T04:56:54.041Z,101210.72
2023-04-08T04:59:20.841Z,101027.88
2023-04-08T05:01:48.339Z,101073.19
2023-04-08T05:04:17.658Z,101221.81
2023-04-08T05:06:51.167Z,101122.50
2023-04-08T05:09:18.370Z,101115.25
2023-04-08T05:11:45.175Z,101079.44
2023-04-08T05:14:11.988Z,101215.78
2023-04-08T05:16:46.686Z,101221.09
2023-04-08T05:19:13.590Z,101030.38
2023-04-08T05:21:50.025Z,101043.03
2023-04-08T05:24:17.110Z,101227.38
2023-04-08T05:26:44.059Z,101131.56
2023-04-08T05:29:14.713Z,101029.31
2023-04-08T05:31:41.575Z,101011.09
2023-04-08T05:34:15.860Z,101068.25
2023-04-08T05:36:42.787Z,101146.16
2023-04-08T05:39:09.794Z,101099.47
2023-04-08T05:41:36.698Z,101202.75
2023-04-08T05:44:03.702Z,101236.28
2023-04-08T05:46:33.557Z,101013.88
2023-04-08T05:49:02.587Z,101194.78
2023-04-08T05:51:29.323Z,101210.72
2023-04-08T05:53:58.516Z,101248.13
2023-04-08T05:56:25.740Z,101196.94
2023-04-08T05:58:52.583Z,101253.44
2023-04-08T06:01:21.512Z,101003.25
2023-04-08T06:03:49.208Z,101051.97
2023-04-08T06:06:16.120Z,101164.72
2023-04-08T06:08:47.721Z,101265.72
2023-04-08T06:11:16.317Z,101234.84
2023-04-08T06:13:43.112Z,101080.66
2023-04-08T06:16:21.135Z,101116.38
2023-04-08T06:18:49.122Z,101186.81
2023-04-08T06:21:16.365Z,101273.69
2023-04-08T06:23:43.318Z,101254.84
2023-04-08T06:26:10.425Z,101153.03
2023-04-08T06:28:43.672Z,101194.56
2023-04-08T06:31:10.380Z,101216.88
2023-04-08T06:33:37.146Z,101281.63
2023-04-08T06:36:08.319Z,101140.59
2023-04-08T06:38:38.219Z,101119.72
2023-04-08T06:41:07.981Z,101118.78
2023-04-08T06:43:40.123Z,101099.25
2023-04-08T06:46:14.397Z,101166.09
2023-04-08T06:48:45.262Z,101279.59
2023-04-08T06:51:15.349Z,101238.81
2023-04-08T06:53:59.343Z,101272.94
2023-04-08T06:56:27.677Z,101289.09
2023-04-08T06:58:54.433Z,101233.59
2023-04-08T07:01:21.269Z,101267.41
2023-04-08T07:03:54.031Z,101291.88
2023-04-08T07:06:29.160Z,101295.50
2023-04-08T07:08:56.358Z,101134.06
2023-04-08T07:11:23.310Z,101251.56
2023-04-08T07:13:50.866Z,101065.97
2023-04-08T07:16:17.639Z,101200.56
2023-04-08T07:18:44.388Z,101052.69
2023-04-08T07:21:13.702Z,101253.47
2023-04-08T07:23:57.612Z,101265.06
2023-04-08T07:26:43.272Z,101296.94
2023-04-08T07:29:25.003Z,101298.72
2023-04-08T07:32:02.796Z,101247.97
2023-04-08T07:34:42.685Z,101202.97
2023-04-08T07:37:21.181Z,101271.72
2023-04-08T07:39:56.682Z,101283.03
2023-04-08T07:42:27.812Z,101288.72
2023-04-08T07:47:35.235Z,101304.47
2023-04-08T07:50:02.064Z,101291.53
2023-04-08T07:52:34.905Z,101292.19
2023-04-08T07:55:08.945Z,101304.47
2023-04-08T07:57:35.911Z,101300.69
2023-04-08T08:00:05.516Z,101310.25
2023-04-08T08:02:34.016Z,101302.78
2023-04-08T08:05:01.743Z,101236.94
2023-04-08T08:07:33.887Z,101245.38
2023-04-08T08:10:03.494Z,101310.06
2023-04-08T08:12:30.458Z,101290.00
2023-04-08T08:15:03.765Z,101306.16
2023-04-08T08:17:32.562Z,101312.00
2023-04-08T08:20:08.526Z,101316.69
2023-04-08T08:25:22.491Z,101240.66
2023-04-08T08:27:55.580Z,101314.56
2023-04-08T08:30:22.595Z,101306.72
2023-04-08T08:32:51.231Z,101288.47
2023-04-08T08:35:27.293Z,101148.16
2023-04-08T08:38:03.592Z,101267.16
2023-04-08T08:40:30.872Z,101306.50
2023-04-08T08:43:11.069Z,101288.53
2023-04-08T08:45:45.408Z,101297.59
2023-04-08T08:48:12.335Z,101328.19
2023-04-08T08:50:43.432Z,101203.16
2023-04-08T08:53:17.886Z,101218.25
2023-04-08T08:56:13.555Z,101270.91
2023-04-08T08:58:31.834Z,101298.47
2023-04-08T09:01:07.278Z,101288.22
2023-04-08T09:03:35.171Z,101323.56
2023-04-08T09:06:03.977Z,101134.59
2023-04-08T09:08:35.672Z,101253.84
2023-04-08T09:11:13.278Z,101322.72
2023-04-08T09:13:52.948Z,101276.78
2023-04-08T09:16:24.121Z,101299.41
2023-04-08T09:18:52.835Z,101301.13
2023-04-08T09:21:24.611Z,101277.78
2023-04-08T09:23:52.810Z,101108.19
2023-04-08T09:26:25.427Z,101223.59
2023-04-08T09:29:25.375Z,101309.81
2023-04-08T09:32:08.759Z,101305.47
2023-04-08T09:34:41.524Z,101318.50
2023-04-08T09:37:08.360Z,101317.50
2023-04-08T09:39:44.188Z,101303.19
2023-04-08T09:42:22.199Z,101301.53
2023-04-08T09:45:03.451Z,101279.19
2023-04-08T09:47:47.974Z,101235.66
2023-04-08T09:50:24.820Z,101322.53
2023-04-08T09:53:03.163Z,101270.88
2023-04-08T09:55:34.220Z,101309.78
2023-04-08T09:58:26.734Z,101269.06
2023-04-08T10:01:11.724Z,101333.03
2023-04-08T10:03:54.569Z,101316.38
2023-04-08T10:06:27.915Z,101325.34
2023-04-08T10:08:58.803Z,101305.28
2023-04-08T10:11:26.662Z,101245.75
2023-04-08T10:14:13.783Z,101291.56
2023-04-08T10:16:43.218Z,101315.34
2023-04-08T10:19:39.717Z,101333.75
2023-04-08T10:22:34.398Z,101332.72
2023-04-08T10:25:18.844Z,101323.03
2023-04-08T10:27:46.705Z,101322.47
2023-04-08T10:30:31.867Z,101330.44
2023-04-08T10:33:00.446Z,101265.41
2023-04-08T10:35:50.014Z,101172.22
2023-04-08T10:38:17.846Z,101323.13
2023-04-08T10:40:58.330Z,101306.72
2023-04-08T10:43:48.870Z,101296.63
2023-04-08T10:46:17.399Z,101245.25
2023-04-08T10:48:59.914Z,101309.13
2023-04-08T10:51:40.450Z,101279.22
2023-04-08T10:54:17.988Z,101262.09
2023-04-08T10:56:50.465Z,101283.47
2023-04-08T10:59:30.203Z,101261.84
2023-04-08T11:01:57.891Z,101278.66
2023-04-08T11:04:25.897Z,101254.50
2023-04-08T11:06:54.527Z,101295.09
2023-04-08T11:09:22.068Z,101260.69
2023-04-08T11:11:52.597Z,101272.25
2023-04-08T11:14:28.190Z,101262.38
2023-04-08T11:16:55.087Z,101272.09
2023-04-08T11:19:24.945Z,101219.88
2023-04-08T11:21:51.735Z,101220.06
2023-04-08T11:24:18.571Z,101252.59
2023-04-08T11:26:45.484Z,101264.69
2023-04-08T11:29:14.480Z,101196.84
2023-04-08T11:31:51.991Z,101253.84
2023-04-08T11:34:31.242Z,101264.19
2023-04-08T11:36:59.176Z,101259.84
2023-04-08T11:39:35.332Z,101256.69
2023-04-08T11:42:10.920Z,101236.31
2023-04-08T11:44:52.504Z,101253.97
2023-04-08T11:47:21.073Z,101165.31
2023-04-08T11:49:57.705Z,101197.25
2023-04-08T11:52:50.502Z,101248.63
2023-04-08T11:55:29.810Z,101240.09
2023-04-08T11:58:07.625Z,101194.75
2023-04-08T12:00:53.164Z,101253.47
2023-04-08T12:03:27.364Z,101205.38
2023-04-08T12:05:59.653Z,101225.84
2023-04-08T12:08:41.977Z,101207.88
2023-04-08T12:11:19.671Z,101217.63
2023-04-08T12:13:53.979Z,101235.38
2023-04-08T12:16:21.493Z,101139.03
2023-04-08T12:18:56.304Z,101208.31
2023-04-08T12:21:25.143Z,101186.78
2023-04-08T12:23:55.403Z,101199.59
2023-04-08T12:26:24.610Z,101112.63
2023-04-08T12:28:51.774Z,101237.97
2023-04-08T12:31:21.147Z,101060.38
2023-04-08T12:33:48.002Z,101191.31
2023-04-08T12:36:14.976Z,101243.13
2023-04-08T12:38:41.648Z,101245.78
2023-04-08T12:41:12.991Z,101284.75
2023-04-08T12:43:47.163Z,101250.78
2023-04-08T12:46:18.801Z,101233.44
2023-04-08T12:49:02.878Z,101305.44
2023-04-08T12:51:38.949Z,101297.13
2023-04-08T12:54:09.647Z,101274.84
2023-04-08T12:56:43.426Z,101146.09
2023-04-08T12:59:10.418Z,101330.25
2023-04-08T13:01:49.752Z,101237.56
2023-04-08T13:04:24.565Z,101262.72
2023-04-08T13:06:53.904Z,101324.38
2023-04-08T13:09:26.204Z,101317.34
2023-04-08T13:12:01.512Z,101296.28
2023-04-08T13:14:35.704Z,101313.41
2023-04-08T13:17:05.572Z,101308.88
2023-04-08T13:19:32.775Z,101305.34
2023-04-08T13:21:59.659Z,101221.56
2023-04-08T13:24:26.571Z,101083.25
2023-04-08T13:26:57.821Z,101295.06
2023-04-08T13:29:28.962Z,101286.31
2023-04-08T13:31:56.289Z,101106.63
2023-04-08T13:34:23.217Z,101080.09
2023-04-08T13:36:51.571Z,101102.50
2023-04-08T13:39:18.338Z,101128.94
2023-04-08T13:41:45.432Z,101232.56
2023-04-08T13:44:22.495Z,101198.84
2023-04-08T13:46:55.467Z,101215.84
2023-04-08T13:49:26.206Z,101176.63
2023-04-08T13:51:52.894Z,101241.72
2023-04-08T13:54:27.979Z,101186.81
2023-04-08T13:56:54.810Z,101203.50
2023-04-08T13:59:21.670Z,101010.81
2023-04-08T14:01:48.594Z,101022.59
2023-04-08T14:04:15.872Z,101031.78
2023-04-08T14:06:46.417Z,101214.44
2023-04-08T14:09:23.269Z,101215.28
2023-04-08T14:11:53.308Z,101218.78
2023-04-08T14:14:21.144Z,101198.44
2023-04-08T14:16:48.469Z,101204.41
2023-04-08T14:19:24.323Z,101210.13
2023-04-08T14:21:51.814Z,101192.50
2023-04-08T14:24:33.028Z,101169.84
2023-04-08T14:27:19.905Z,101204.28
2023-04-08T14:29:46.877Z,101153.94
2023-04-08T14:32:13.925Z,101201.75
2023-04-08T14:34:40.646Z,101161.28
2023-04-08T14:37:08.552Z,101205.00
2023-04-08T14:39:35.883Z,101197.84
2023-04-08T14:42:07.382Z,101210.34
2023-04-08T14:44:37.238Z,101149.88
2023-04-08T14:47:04.074Z,101179.66
2023-04-08T14:49:30.958Z,101214.06
2023-04-08T14:52:00.547Z,101198.06
2023-04-08T14:54:33.617Z,101197.84
2023-04-08T14:57:01.149Z,101176.81
2023-04-08T14:59:30.487Z,101169.28
2023-04-08T15:01:59.110Z,101202.09
2023-04-08T15:04:26.116Z,101206.44
2023-04-08T15:07:02.907Z,101207.84
2023-04-08T15:09:30.377Z,101142.56
2023-04-08T15:11:58.512Z,101227.47
2023-04-08T15:14:25.436Z,101174.50
2023-04-08T15:16:57.402Z,101165.34
2023-04-08T15:19:32.288Z,101219.38
2023-04-08T15:21:59.177Z,101225.91
2023-04-08T15:24:28.513Z,101201.22
2023-04-08T15:26:56.450Z,101202.25
2023-04-08T15:29:32.805Z,101227.47
2023-04-08T15:31:59.701Z,101225.44
2023-04-08T15:34:30.421Z,101159.97
2023-04-08T15:37:03.115Z,101205.63
2023-04-08T15:39:31.920Z,101198.72
2023-04-08T15:42:01.806Z,101150.50
2023-04-08T15:44:35.229Z,101220.41
2023-04-08T15:47:02.900Z,101227.44
2023-04-08T15:49:29.901Z,101133.81
2023-04-08T15:52:08.433Z,101230.47
2023-04-08T15:54:35.225Z,101224.41
2023-04-08T15:57:02.739Z,101227.91
2023-04-08T15:59:33.644Z,101241.81
2023-04-08T16:02:05.865Z,101184.38
2023-04-08T16:04:32.843Z,101213.63
2023-04-08T16:07:14.949Z,101095.28
2023-04-08T16:09:44.725Z,101226.75
2023-04-08T16:12:17.780Z,101187.19
2023-04-08T16:14:44.642Z,101117.19
2023-04-08T16:17:13.507Z,101229.50
2023-04-08T16:19:43.655Z,101236.16
2023-04-08T16:22:10.366Z,101224.00
2023-04-08T16:24:48.785Z,101251.22
2023-04-08T16:27:15.593Z,101244.50
2023-04-08T16:29:42.944Z,101243.34
2023-04-08T16:32:15.953Z,101235.78
2023-04-08T16:34:42.867Z,101199.06
2023-04-08T16:37:09.990Z,101242.69
2023-04-08T16:39:41.902Z,101160.53
2023-04-08T16:42:16.262Z,101205.53
2023-04-08T16:44:42.955Z,101213.56
2023-04-08T16:47:09.644Z,101133.91
2023-04-08T16:49:36.492Z,101095.06
2023-04-08T16:52:08.219Z,101174.38
2023-04-08T16:54:35.839Z,101259.94
2023-04-08T16:57:05.106Z,101271.09
2023-04-08T16:59:31.836Z,101258.78
2023-04-08T17:02:06.738Z,101275.22
2023-04-08T17:04:36.015Z,101269.78
2023-04-08T17:07:04.762Z,101097.97
2023-04-08T17:09:31.692Z,101131.06
2023-04-08T17:11:58.347Z,101219.66
2023-04-08T17:14:25.055Z,101243.41
2023-04-08T17:16:52.483Z,101276.81
2023-04-08T17:19:19.388Z,101269.13
2023-04-08T17:21:46.904Z,101224.00
2023-04-08T17:24:13.884Z,101277.50
2023-04-08T17:26:44.143Z,101137.34
2023-04-08T17:29:16.343Z,101096.56
2023-04-08T17:31:44.692Z,101147.22
2023-04-08T17:34:14.113Z,101161.72
2023-04-08T17:36:40.911Z,101169.72
2023-04-08T17:39:08.173Z,101292.69
2023-04-08T17:41:40.194Z,101298.31
2023-04-08T17:44:08.368Z,101243.25
2023-04-08T17:46:35.788Z,101304.72
2023-04-08T17:49:10.915Z,101312.19
2023-04-08T17:51:37.633Z,101248.09
2023-04-08T17:54:10.203Z,101310.44
2023-04-08T17:56:37.517Z,101330.25
2023-04-08T17:59:04.621Z,101324.06
2023-04-08T18:01:31.487Z,101297.28
2023-04-08T18:03:58.515Z,101330.72
2023-04-08T18:06:29.002Z,101319.25
2023-04-08T18:09:01.068Z,101268.97
2023-04-08T18:11:28.373Z,101343.13
2023-04-08T18:13:56.404Z,101335.44
2023-04-08T18:16:29.947Z,101320.44
2023-04-08T18:18:58.657Z,101299.34
2023-04-08T18:21:26.156Z,101365.84
2023-04-08T18:23:53.271Z,101335.19
2023-04-08T18:26:20.176Z,101371.88
2023-04-08T18:28:57.121Z,101366.84
2023-04-08T18:31:24.525Z,101369.94
2023-04-08T18:33:51.711Z,101308.69
2023-04-08T18:36:21.168Z,101332.44
2023-04-08T18:38:54.251Z,101381.47
2023-04-08T18:41:58.431Z,101340.88
2023-04-08T18:44:15.871Z,101346.63
2023-04-08T18:46:46.017Z,101363.88
2023-04-08T18:49:21.797Z,101357.72
2023-04-08T18:52:01.207Z,101384.56
2023-04-08T18:54:30.298Z,101392.72
2023-04-08T18:57:19.000Z,101359.28
2023-04-08T18:59:59.001Z,101321.19
2023-04-08T19:02:25.927Z,101416.06
2023-04-08T19:04:52.741Z,101401.72
2023-04-08T19:07:25.813Z,101407.63
2023-04-08T19:09:57.730Z,101378.97
2023-04-08T19:12:24.869Z,101416.75
2023-04-08T19:14:54.795Z,101418.28
2023-04-08T19:17:24.686Z,101427.00
2023-04-08T19:19:55.379Z,101396.34
2023-04-08T19:22:22.069Z,101432.63
2023-04-08T19:24:48.921Z,101420.53
2023-04-08T19:27:24.340Z,101376.97
2023-04-08T19:29:51.128Z,101405.34
2023-04-08T19:32:20.046Z,101443.03
2023-04-08T19:34:46.702Z,101311.69
2023-04-08T19:37:13.594Z,101451.28
2023-04-08T19:39:40.713Z,101462.25
2023-04-08T19:42:07.562Z,101407.28
2023-04-08T19:44:34.563Z,101421.03
2023-04-08T19:47:07.374Z,101423.97
2023-04-08T19:49:34.396Z,101424.81
2023-04-08T19:52:16.889Z,101452.63
2023-04-08T19:54:43.765Z,101428.03
2023-04-08T19:57:11.042Z,101452.91
2023-04-08T19:59:39.448Z,101421.25
2023-04-08T20:02:10.401Z,101412.81
2023-04-08T20:04:38.124Z,101462.03
2023-04-08T20:07:14.051Z,101457.38
2023-04-08T20:09:46.637Z,101445.56
2023-04-08T20:12:22.113Z,101463.16
2023-04-08T20:14:56.632Z,101460.59
2023-04-08T20:17:25.946Z,101466.06
2023-04-08T20:19:53.555Z,101445.25
2023-04-08T20:22:21.056Z,101442.69
2023-04-08T20:24:48.291Z,101399.88
2023-04-08T20:27:16.562Z,101474.34
2023-04-08T20:29:43.421Z,101491.16
2023-04-08T20:32:13.921Z,101495.59
2023-04-08T20:34:43.093Z,101461.47
2023-04-08T20:37:09.975Z,101391.31
2023-04-08T20:39:36.800Z,101478.44
2023-04-08T20:42:10.234Z,101492.75
2023-04-08T20:44:48.604Z,101443.28
2023-04-08T20:47:15.697Z,101508.88
2023-04-08T20:49:42.907Z,101511.94
2023-04-08T20:52:14.482Z,101477.53
2023-04-08T20:54:43.445Z,101499.13
2023-04-08T20:57:10.488Z,101517.84
2023-04-08T20:59:41.670Z,101473.16
2023-04-08T21:02:15.084Z,101505.09
2023-04-08T21:04:43.360Z,101520.03
2023-04-08T21:07:13.240Z,101494.81
2023-04-08T21:09:45.421Z,101524.16
2023-04-08T21:12:12.781Z,101524.00
2023-04-08T21:14:41.408Z,101503.66
2023-04-08T21:17:13.476Z,101515.75
2023-04-08T21:19:43.373Z,101445.78
2023-04-08T21:22:10.309Z,101456.66
2023-04-08T21:24:38.303Z,101504.09
2023-04-08T21:27:05.137Z,101531.06
2023-04-08T21:29:36.906Z,101528.19
2023-04-08T21:32:06.915Z,101519.09
2023-04-08T21:34:50.106Z,101522.34
2023-04-08T21:37:17.324Z,101531.47
2023-04-08T21:39:47.243Z,101530.03
2023-04-08T21:42:14.177Z,101521.94
2023-04-08T21:44:40.874Z,101503.69
2023-04-08T21:47:09.633Z,101477.09
2023-04-08T21:49:44.976Z,101512.41
2023-04-08T21:52:11.769Z,101506.72
2023-04-08T21:54:44.531Z,101540.94
2023-04-08T21:57:11.376Z,101504.41
2023-04-08T21:59:46.886Z,101377.28
2023-04-08T22:02:13.875Z,101521.84
2023-04-08T22:04:40.784Z,101549.16
2023-04-08T22:07:10.191Z,101538.75
2023-04-08T22:09:37.105Z,101540.69
2023-04-08T22:12:04.008Z,101414.13
2023-04-08T22:14:37.486Z,101542.75
2023-04-08T22:17:12.400Z,101545.28
2023-04-08T22:19:41.109Z,101532.22
2023-04-08T22:22:15.408Z,101531.25
2023-04-08T22:24:42.224Z,101505.63
2023-04-08T22:27:08.969Z,101523.25
2023-04-08T22:29:40.874Z,101524.50
2023-04-08T22:32:07.479Z,101547.81
2023-04-08T22:34:36.254Z,101540.69
2023-04-08T22:37:10.741Z,101523.13
2023-04-08T22:39:40.510Z,101455.94
2023-04-08T22:42:12.648Z,101513.97
2023-04-08T22:44:43.012Z,101545.41
2023-04-08T22:47:12.926Z,101516.72
2023-04-08T22:49:42.824Z,101537.56
2023-04-08T22:52:09.625Z,101506.59
2023-04-08T22:54:36.872Z,101511.91
2023-04-08T22:57:07.080Z,101492.28
2023-04-08T22:59:36.163Z,101546.69
2023-04-08T23:02:03.625Z,101531.09
2023-04-08T23:04:30.827Z,101560.03
2023-04-08T23:06:57.984Z,101536.81
2023-04-08T23:09:25.000Z,101475.84
2023-04-08T23:11:54.562Z,101538.09
2023-04-08T23:14:24.364Z,101552.38
2023-04-08T23:17:03.088Z,101557.78
2023-04-08T23:19:32.789Z,101555.84
2023-04-08T23:21:59.579Z,101528.75
2023-04-08T23:24:33.493Z,101547.59
2023-04-08T23:27:02.171Z,101556.41
2023-04-08T23:29:29.066Z,101525.31
2023-04-08T23:31:55.831Z,101561.72
2023-04-08T23:34:22.505Z,101554.94
2023-04-08T23:37:01.635Z,101563.50
2023-04-08T23:39:28.319Z,101565.41
2023-04-08T23:41:54.905Z,101553.53
2023-04-08T23:44:26.510Z,101564.78
2023-04-08T23:46:57.290Z,101567.56
2023-04-08T23:49:29.212Z,101527.41
2023-04-08T23:52:10.479Z,101526.88
2023-04-08T23:54:41.904Z,101562.22
2023-04-08T23:57:12.693Z,101551.34
2023-04-08T23:59:41.868Z,101559.81
